Time;durP1;ratioP1;P1;durP2;ratioP2;P2;SDS_P1;SDS_P2;PMS_P1;PMS_P2;Temp;Humidity;BMP_temperature;BMP_pressure;BME280_temperature;BME280_humidity;BME280_pressure;Samples;Min_cycle;Max_cycle;Signal;HPM_P1;HPM_P2
2022/08/26 00:01:42;;;;;;;5.25;3.50;;;24.50;82.10;;;;;;5060959;28;45395;-69
2022/08/26 00:04:10;;;;;;;5.10;3.85;;;24.40;82.10;;;;;;5061250;28;47912;-69
2022/08/26 00:06:38;;;;;;;4.30;3.55;;;24.50;82.10;;;;;;5061912;28;45288;-69
2022/08/26 00:09:06;;;;;;;4.97;4.20;;;24.40;82.10;;;;;;5061898;28;45500;-69
2022/08/26 00:11:33;;;;;;;5.90;4.03;;;24.50;82.10;;;;;;5062689;28;45300;-69
2022/08/26 00:13:59;;;;;;;8.90;4.70;;;24.50;82.20;;;;;;5062093;28;47195;-69
2022/08/26 00:16:28;;;;;;;6.03;4.50;;;24.40;82.60;;;;;;5060658;28;45276;-69
2022/08/26 00:18:55;;;;;;;5.50;4.60;;;24.40;82.90;;;;;;5059331;28;45410;-69
2022/08/26 00:21:22;;;;;;;8.15;5.07;;;24.50;83.20;;;;;;5060649;28;45404;-69
2022/08/26 00:23:50;;;;;;;5.57;4.80;;;24.40;83.40;;;;;;5061813;28;47801;-69
2022/08/26 00:26:17;;;;;;;7.72;6.13;;;24.40;84.40;;;;;;5060662;28;45754;-69
2022/08/26 00:28:44;;;;;;;7.57;6.60;;;24.40;83.80;;;;;;5063054;28;45320;-69
2022/08/26 00:31:11;;;;;;;7.28;5.82;;;24.50;84.10;;;;;;5057350;28;45463;-69
2022/08/26 00:33:38;;;;;;;7.45;6.20;;;24.40;84.10;;;;;;5060061;28;45438;-69
2022/08/26 00:36:05;;;;;;;9.73;7.18;;;24.40;84.20;;;;;;5061139;28;45396;-69
2022/08/26 00:38:32;;;;;;;9.32;7.35;;;24.40;84.30;;;;;;5060630;28;45223;-69
2022/08/26 00:41:01;;;;;;;10.45;7.90;;;24.40;84.60;;;;;;5059715;28;45376;-70
2022/08/26 00:43:32;;;;;;;9.55;7.85;;;24.50;85.80;;;;;;5054693;28;45454;-69
2022/08/26 00:46:03;;;;;;;10.02;8.38;;;24.40;84.90;;;;;;5061740;28;45324;-69
2022/08/26 00:48:33;;;;;;;11.65;8.82;;;24.50;85.10;;;;;;5056878;28;45283;-69
2022/08/26 00:51:04;;;;;;;10.35;8.57;;;24.40;85.20;;;;;;5061454;28;45535;-69
2022/08/26 00:53:36;;;;;;;11.13;9.15;;;24.40;85.30;;;;;;5056722;28;46267;-69
2022/08/26 00:56:09;;;;;;;11.93;9.32;;;24.40;85.40;;;;;;5062741;28;45447;-69
2022/08/26 00:58:41;;;;;;;11.93;9.95;;;24.40;85.70;;;;;;5064208;28;45425;-69
2022/08/26 01:01:09;;;;;;;11.90;9.73;;;24.40;85.80;;;;;;5065000;28;45422;-69
2022/08/26 01:03:38;;;;;;;13.25;9.13;;;24.40;85.70;;;;;;5064877;28;46610;-69
2022/08/26 01:06:06;;;;;;;9.52;8.38;;;24.50;85.90;;;;;;5064496;28;45493;-69
2022/08/26 01:08:33;;;;;;;10.55;7.88;;;24.50;86.00;;;;;;5064429;28;45235;-69
2022/08/26 01:11:02;;;;;;;10.60;8.73;;;24.40;85.90;;;;;;5064990;28;45408;-69
2022/08/26 01:13:31;;;;;;;11.32;8.88;;;24.40;86.10;;;;;;5058779;28;47084;-69
2022/08/26 01:16:02;;;;;;;10.25;8.73;;;24.40;86.10;;;;;;5061300;28;45356;-69
2022/08/26 01:18:30;;;;;;;10.82;9.38;;;24.40;86.20;;;;;;5055652;28;45288;-69
2022/08/26 01:21:04;;;;;;;10.40;8.70;;;24.40;86.30;;;;;;5064381;28;45253;-69
2022/08/26 01:23:36;;;;;;;11.98;8.95;;;24.40;86.30;;;;;;5064349;28;45639;-69
2022/08/26 01:26:07;;;;;;;10.60;8.70;;;24.40;86.40;;;;;;5063611;28;45352;-69
2022/08/26 01:28:36;;;;;;;12.30;9.20;;;24.40;86.40;;;;;;5063354;28;45344;-69
2022/08/26 01:31:05;;;;;;;10.13;8.88;;;24.40;86.50;;;;;;5064615;28;45387;-69
2022/08/26 01:33:37;;;;;;;13.38;10.23;;;24.40;86.70;;;;;;5063190;28;45436;-69
2022/08/26 01:36:04;;;;;;;11.93;8.45;;;24.40;86.60;;;;;;5064221;28;45382;-69
2022/08/26 01:38:33;;;;;;;10.35;9.18;;;24.40;86.80;;;;;;5063414;28;45543;-69
2022/08/26 01:41:01;;;;;;;10.20;8.55;;;24.40;86.70;;;;;;5064564;28;45238;-69
2022/08/26 01:43:31;;;;;;;11.20;8.55;;;24.40;86.80;;;;;;5058889;28;47464;-69
2022/08/26 01:45:58;;;;;;;10.57;8.43;;;24.40;86.80;;;;;;5063916;28;45345;-69
2022/08/26 01:48:33;;;;;;;11.18;9.32;;;24.40;87.00;;;;;;5063835;28;45427;-69
2022/08/26 01:51:02;;;;;;;10.43;8.48;;;24.40;87.00;;;;;;5058012;28;45474;-69
2022/08/26 01:53:30;;;;;;;10.35;8.30;;;24.40;87.00;;;;;;5064975;28;46076;-69
2022/08/26 01:56:02;;;;;;;11.98;8.80;;;24.40;87.10;;;;;;5063163;28;46196;-69
2022/08/26 01:58:36;;;;;;;9.95;8.38;;;24.40;87.20;;;;;;5055156;28;45356;-69
2022/08/26 02:01:04;;;;;;;11.13;8.98;;;24.40;87.10;;;;;;5063698;28;45333;-69
2022/08/26 02:03:32;;;;;;;8.85;7.40;;;24.40;87.10;;;;;;5063516;28;46595;-69
2022/08/26 02:06:02;;;;;;;10.50;8.52;;;24.40;87.20;;;;;;5062562;28;45397;-69
2022/08/26 02:08:36;;;;;;;9.32;8.18;;;24.40;87.10;;;;;;5055471;28;45508;-69
2022/08/26 02:11:05;;;;;;;11.00;8.52;;;24.40;87.30;;;;;;5064666;28;45981;-69
2022/08/26 02:13:34;;;;;;;8.77;7.00;;;24.40;87.30;;;;;;5063380;28;45466;-69
2022/08/26 02:16:02;;;;;;;8.82;7.78;;;24.40;87.40;;;;;;5062327;28;45316;-69
2022/08/26 02:18:30;;;;;;;8.10;7.18;;;24.40;87.50;;;;;;5062009;28;45277;-69
2022/08/26 02:20:57;;;;;;;8.25;6.70;;;24.40;87.50;;;;;;5062720;28;45523;-69
2022/08/26 02:23:25;;;;;;;8.23;7.05;;;24.40;87.60;;;;;;5063592;28;46428;-69
2022/08/26 02:25:57;;;;;;;10.98;7.15;;;24.40;88.00;;;;;;5062455;28;45447;-69
2022/08/26 02:28:29;;;;;;;7.75;6.95;;;24.40;87.70;;;;;;5062969;28;45431;-69
2022/08/26 02:30:56;;;;;;;8.00;7.20;;;24.40;87.70;;;;;;5060403;28;45384;-69
2022/08/26 02:33:23;;;;;;;8.23;7.25;;;24.40;87.80;;;;;;5063313;28;46632;-69
2022/08/26 02:35:49;;;;;;;7.88;6.15;;;24.40;87.80;;;;;;5062421;28;45337;-69
2022/08/26 02:38:16;;;;;;;6.68;5.97;;;24.40;88.00;;;;;;5062084;28;45377;-69
2022/08/26 02:40:43;;;;;;;7.90;6.43;;;24.40;89.10;;;;;;5062823;28;45408;-69
2022/08/26 02:43:11;;;;;;;6.93;6.05;;;24.40;88.10;;;;;;5063201;28;45526;-69
2022/08/26 02:45:39;;;;;;;6.80;5.93;;;24.40;88.00;;;;;;5060417;28;45463;-69
2022/08/26 02:48:11;;;;;;;6.68;5.75;;;24.40;88.20;;;;;;5062560;28;45448;-69
2022/08/26 02:50:38;;;;;;;6.97;5.90;;;24.40;88.30;;;;;;5062699;28;45361;-69
2022/08/26 02:53:06;;;;;;;6.43;5.35;;;24.40;88.50;;;;;;5061609;28;46594;-69
2022/08/26 02:55:33;;;;;;;6.05;5.40;;;24.40;88.40;;;;;;5061389;28;45461;-69
2022/08/26 02:58:01;;;;;;;6.32;5.60;;;24.40;88.50;;;;;;5062861;28;45526;-69
2022/08/26 03:00:28;;;;;;;6.72;5.57;;;24.40;88.50;;;;;;5054912;28;45345;-69
2022/08/26 03:02:57;;;;;;;6.43;5.03;;;24.40;88.60;;;;;;5061792;28;48194;-69
2022/08/26 03:05:24;;;;;;;5.93;5.30;;;24.40;88.60;;;;;;5062494;28;45467;-69
2022/08/26 03:07:52;;;;;;;7.05;5.57;;;24.40;88.70;;;;;;5061999;28;45447;-69
2022/08/26 03:10:19;;;;;;;6.18;5.45;;;24.40;88.70;;;;;;5063911;28;45496;-69
2022/08/26 03:12:46;;;;;;;6.60;5.60;;;24.40;88.80;;;;;;5062846;28;47596;-69
2022/08/26 03:15:15;;;;;;;5.45;4.95;;;24.40;89.00;;;;;;5062932;28;45447;-69
2022/08/26 03:17:42;;;;;;;6.65;5.65;;;24.40;88.90;;;;;;5060486;28;45379;-69
2022/08/26 03:20:10;;;;;;;7.47;5.65;;;24.40;89.10;;;;;;5063390;28;45400;-69
2022/08/26 03:22:38;;;;;;;6.03;5.32;;;24.40;89.10;;;;;;5061665;28;45436;-69
2022/08/26 03:25:09;;;;;;;6.18;5.38;;;24.40;89.10;;;;;;5061270;28;45447;-69
2022/08/26 03:27:36;;;;;;;6.00;5.03;;;24.40;89.10;;;;;;5057379;28;45578;-69
2022/08/26 03:32:48;;;;;;;5.28;4.68;;;24.40;89.10;;;;;;5060936;28;45500;-69
2022/08/26 03:35:16;;;;;;;7.13;4.50;;;24.40;89.10;;;;;;5061802;28;45380;-69
2022/08/26 03:37:43;;;;;;;4.90;4.18;;;24.40;89.20;;;;;;5061437;28;45564;-69
2022/08/26 03:40:10;;;;;;;5.25;4.22;;;24.40;89.20;;;;;;5062267;28;45651;-69
2022/08/26 03:42:38;;;;;;;4.88;4.22;;;24.40;89.10;;;;;;5060755;28;46533;-69
2022/08/26 03:45:06;;;;;;;6.05;4.30;;;24.40;89.20;;;;;;5062648;28;45332;-69
2022/08/26 03:47:33;;;;;;;5.22;4.00;;;24.40;89.20;;;;;;5061980;28;45379;-69
2022/08/26 03:50:00;;;;;;;4.63;4.18;;;24.40;89.20;;;;;;5062471;28;45471;-69
2022/08/26 03:52:30;;;;;;;4.20;3.80;;;24.40;89.30;;;;;;5061573;28;45307;-69
2022/08/26 03:54:57;;;;;;;4.53;3.95;;;24.40;90.10;;;;;;5061393;28;45290;-69
2022/08/26 03:57:24;;;;;;;5.30;3.88;;;24.40;89.30;;;;;;5061192;28;45369;-70
2022/08/26 03:59:51;;;;;;;5.05;3.92;;;24.40;89.30;;;;;;5061704;28;45718;-69
2022/08/26 04:02:18;;;;;;;3.97;3.58;;;24.40;89.30;;;;;;5060773;28;48374;-69
2022/08/26 04:04:45;;;;;;;4.03;3.63;;;24.40;89.40;;;;;;5061575;28;45323;-69
2022/08/26 04:07:12;;;;;;;4.40;3.53;;;24.40;89.30;;;;;;5059677;28;45242;-69
2022/08/26 04:09:40;;;;;;;4.15;3.75;;;24.40;89.40;;;;;;5064058;28;45535;-69
2022/08/26 04:12:09;;;;;;;4.05;3.60;;;24.40;89.20;;;;;;5061023;28;47102;-69
2022/08/26 04:14:36;;;;;;;4.30;3.90;;;24.40;89.40;;;;;;5061600;28;45310;-69
2022/08/26 04:17:04;;;;;;;3.80;3.40;;;24.40;89.40;;;;;;5060453;28;45588;-69
2022/08/26 04:19:32;;;;;;;4.10;3.70;;;24.40;89.40;;;;;;5059888;28;45439;-69
2022/08/26 04:21:59;;;;;;;5.10;3.60;;;24.40;89.40;;;;;;5062184;28;46561;-69
2022/08/26 04:24:27;;;;;;;3.80;3.38;;;24.40;89.30;;;;;;5060126;28;45413;-69
2022/08/26 04:26:56;;;;;;;3.55;3.25;;;24.40;89.40;;;;;;5059943;28;45443;-69
2022/08/26 04:29:26;;;;;;;3.72;3.17;;;24.40;89.40;;;;;;5061598;28;45499;-69
2022/08/26 04:31:54;;;;;;;3.47;3.17;;;24.40;89.40;;;;;;5060863;28;48820;-69
2022/08/26 04:34:22;;;;;;;3.25;2.83;;;24.40;89.50;;;;;;5060033;28;45272;-70
2022/08/26 04:36:49;;;;;;;4.38;3.47;;;24.40;89.40;;;;;;5060783;28;45544;-69
2022/08/26 04:39:16;;;;;;;3.55;3.22;;;24.40;89.50;;;;;;5061123;28;45423;-69
2022/08/26 04:41:44;;;;;;;3.53;3.22;;;24.40;89.50;;;;;;5060755;28;46242;-69
2022/08/26 04:44:12;;;;;;;3.83;3.42;;;24.40;89.40;;;;;;5062096;28;45365;-69
2022/08/26 04:46:40;;;;;;;3.30;3.00;;;24.40;89.40;;;;;;5061288;28;45422;-69
2022/08/26 04:49:08;;;;;;;3.65;3.20;;;24.40;89.50;;;;;;5055984;28;45432;-69
2022/08/26 04:51:35;;;;;;;3.47;3.13;;;24.40;89.50;;;;;;5060800;28;48351;-69
2022/08/26 04:54:03;;;;;;;3.33;2.80;;;24.40;89.40;;;;;;5062606;28;45329;-69
2022/08/26 04:56:33;;;;;;;3.22;2.92;;;24.40;89.40;;;;;;5059647;28;45720;-69
2022/08/26 04:59:00;;;;;;;3.38;3.08;;;24.40;89.50;;;;;;5056908;28;45649;-69
2022/08/26 05:01:29;;;;;;;3.05;2.75;;;24.40;89.50;;;;;;5056804;28;46981;-69
2022/08/26 05:03:56;;;;;;;2.65;2.45;;;24.40;89.50;;;;;;5060327;28;45284;-69
2022/08/26 05:06:23;;;;;;;3.00;2.60;;;24.40;89.40;;;;;;5059624;28;45466;-69
2022/08/26 05:08:50;;;;;;;2.55;2.35;;;24.40;89.50;;;;;;5059793;28;45485;-69
2022/08/26 05:11:17;;;;;;;2.55;2.35;;;24.40;89.50;;;;;;5060251;28;46301;-69
2022/08/26 05:13:44;;;;;;;3.10;2.30;;;24.40;89.40;;;;;;5060451;28;45449;-69
2022/08/26 05:16:13;;;;;;;2.85;2.40;;;24.40;89.40;;;;;;5061358;28;45416;-70
2022/08/26 05:18:43;;;;;;;2.80;2.50;;;24.40;89.40;;;;;;5058653;28;45223;-70
2022/08/26 05:21:16;;;;;;;3.30;2.53;;;24.40;89.50;;;;;;5060160;28;47068;-70
2022/08/26 05:23:43;;;;;;;4.53;2.78;;;24.40;89.60;;;;;;5055140;28;45578;-69
2022/08/26 05:26:10;;;;;;;3.35;2.33;;;24.40;89.60;;;;;;5059675;28;45273;-69
2022/08/26 05:28:37;;;;;;;2.40;2.13;;;24.40;89.60;;;;;;5058652;28;45634;-69
2022/08/26 05:31:12;;;;;;;4.28;2.70;;;24.40;89.60;;;;;;5059313;28;48657;-70
2022/08/26 05:33:39;;;;;;;6.25;2.70;;;24.40;89.70;;;;;;5061918;28;45220;-69
2022/08/26 05:36:09;;;;;;;4.90;2.65;;;24.40;89.80;;;;;;5059663;28;45749;-69
2022/08/26 05:38:36;;;;;;;3.50;2.70;;;24.40;90.00;;;;;;5058952;28;45372;-69
2022/08/26 05:41:02;;;;;;;4.05;2.78;;;24.40;90.00;;;;;;5060768;28;46004;-70
2022/08/26 05:43:30;;;;;;;7.20;2.63;;;24.40;90.00;;;;;;5062976;28;45509;-70
2022/08/26 05:45:56;;;;;;;4.18;2.70;;;24.40;90.00;;;;;;5064701;28;45217;-69
2022/08/26 05:48:23;;;;;;;5.85;3.17;;;24.40;90.00;;;;;;5062626;28;45205;-69
2022/08/26 05:50:52;;;;;;;3.40;2.75;;;24.40;90.10;;;;;;5064539;28;45500;-69
2022/08/26 05:53:22;;;;;;;3.63;2.40;;;24.40;90.10;;;;;;5063292;28;45237;-69
2022/08/26 05:55:51;;;;;;;6.45;2.55;;;24.40;90.10;;;;;;5056877;28;45439;-69
2022/08/26 05:58:19;;;;;;;4.25;2.60;;;24.40;90.10;;;;;;5061012;28;45334;-70
2022/08/26 06:00:55;;;;;;;3.22;2.20;;;24.40;90.00;;;;;;5060302;28;47710;-70
2022/08/26 06:03:23;;;;;;;3.45;2.13;;;24.40;90.00;;;;;;5061817;28;45328;-69
2022/08/26 06:05:50;;;;;;;4.75;2.55;;;24.40;90.00;;;;;;5063895;28;45412;-69
2022/08/26 06:08:17;;;;;;;3.35;2.13;;;24.40;90.00;;;;;;5063402;28;45345;-69
2022/08/26 06:10:47;;;;;;;4.22;2.38;;;24.40;90.00;;;;;;5062724;28;46605;-69
2022/08/26 06:13:15;;;;;;;3.78;2.08;;;24.40;90.00;;;;;;5063399;28;45302;-69
2022/08/26 06:15:44;;;;;;;5.88;2.28;;;24.40;90.00;;;;;;5061362;28;45504;-69
2022/08/26 06:18:11;;;;;;;5.20;2.30;;;24.40;90.00;;;;;;5061161;28;45341;-69
2022/08/26 06:20:42;;;;;;;3.05;2.10;;;24.40;90.10;;;;;;5062361;28;47148;-69
2022/08/26 06:25:55;;;;;;;3.58;2.22;;;24.40;89.80;;;;;;5060434;28;45583;-69
2022/08/26 06:28:23;;;;;;;3.65;2.20;;;24.40;89.20;;;;;;5060373;28;45325;-68
2022/08/26 06:30:51;;;;;;;4.13;2.20;;;24.50;89.20;;;;;;5060176;28;48956;-68
2022/08/26 06:33:18;;;;;;;3.75;2.08;;;24.50;89.20;;;;;;5058925;28;45452;-68
2022/08/26 06:35:45;;;;;;;6.53;2.40;;;24.50;89.20;;;;;;5064484;28;45430;-68
2022/08/26 06:38:12;;;;;;;3.20;2.20;;;24.50;89.30;;;;;;5060593;28;45476;-68
2022/08/26 06:40:42;;;;;;;3.17;1.90;;;24.40;89.30;;;;;;5060343;28;46377;-69
2022/08/26 06:43:10;;;;;;;3.00;2.00;;;24.50;90.10;;;;;;5058360;28;45786;-68
2022/08/26 06:45:38;;;;;;;4.43;1.92;;;24.40;89.40;;;;;;5056143;28;45415;-69
2022/08/26 06:48:05;;;;;;;3.78;1.80;;;24.40;89.20;;;;;;5058566;28;45763;-69
2022/08/26 06:50:32;;;;;;;2.60;2.00;;;24.40;89.20;;;;;;5061473;28;46531;-69
2022/08/26 06:52:59;;;;;;;3.40;2.20;;;24.40;89.20;;;;;;5063157;28;45281;-69
2022/08/26 06:55:26;;;;;;;5.60;2.00;;;24.40;89.30;;;;;;5060184;28;45271;-69
2022/08/26 06:57:53;;;;;;;3.97;1.98;;;24.50;89.50;;;;;;5063977;28;45309;-69
2022/08/26 07:00:21;;;;;;;3.83;1.70;;;24.50;89.50;;;;;;5063368;28;47573;-69
2022/08/26 07:02:48;;;;;;;4.75;2.00;;;24.50;89.40;;;;;;5063571;28;45612;-69
2022/08/26 07:05:15;;;;;;;4.30;2.00;;;24.40;89.30;;;;;;5060929;28;45435;-68
2022/08/26 07:07:42;;;;;;;2.20;1.90;;;24.50;89.40;;;;;;5064394;28;45190;-68
2022/08/26 07:10:09;;;;;;;2.80;1.92;;;24.50;89.40;;;;;;5064224;28;47573;-69
2022/08/26 07:12:36;;;;;;;7.38;2.50;;;24.50;89.50;;;;;;5061760;28;45436;-69
2022/08/26 07:15:05;;;;;;;3.40;1.92;;;24.50;89.50;;;;;;5059730;28;45314;-69
2022/08/26 07:17:33;;;;;;;3.83;2.03;;;24.50;90.10;;;;;;5058941;28;45519;-69
2022/08/26 07:20:01;;;;;;;3.35;2.03;;;24.50;89.50;;;;;;5061981;28;46311;-69
2022/08/26 07:22:29;;;;;;;4.20;2.50;;;24.50;89.90;;;;;;5063300;28;45342;-69
2022/08/26 07:24:56;;;;;;;4.60;2.05;;;24.40;89.80;;;;;;5060807;28;45311;-69
2022/08/26 07:27:23;;;;;;;3.00;1.80;;;24.50;89.60;;;;;;5062949;28;45699;-69
2022/08/26 07:29:49;;;;;;;2.70;1.80;;;24.50;89.70;;;;;;5062059;28;46628;-68
2022/08/26 07:32:19;;;;;;;4.05;2.10;;;24.50;89.60;;;;;;5062498;28;45714;-69
2022/08/26 07:34:47;;;;;;;4.20;2.08;;;24.50;89.60;;;;;;5062941;28;45292;-68
2022/08/26 07:37:15;;;;;;;2.30;1.75;;;24.50;89.60;;;;;;5061706;28;45432;-69
2022/08/26 07:39:42;;;;;;;3.75;2.00;;;24.50;89.50;;;;;;5060746;28;48462;-69
2022/08/26 07:42:12;;;;;;;3.83;2.05;;;24.50;89.40;;;;;;5062456;28;45444;-68
2022/08/26 07:44:39;;;;;;;2.60;1.83;;;24.50;89.30;;;;;;5061291;28;45380;-68
2022/08/26 07:47:07;;;;;;;2.03;1.50;;;24.50;89.30;;;;;;5062586;28;45612;-68
2022/08/26 07:49:34;;;;;;;4.53;2.28;;;24.50;89.30;;;;;;5057705;28;46628;-68
2022/08/26 07:52:03;;;;;;;3.63;2.15;;;24.50;89.20;;;;;;5060306;28;45290;-69
2022/08/26 07:54:30;;;;;;;3.22;2.40;;;24.50;89.20;;;;;;5057531;28;45335;-68
2022/08/26 07:56:57;;;;;;;3.47;2.20;;;24.50;89.20;;;;;;5062205;28;45519;-68
2022/08/26 07:59:25;;;;;;;2.85;1.85;;;24.50;89.30;;;;;;5061425;28;45412;-69
2022/08/26 08:01:52;;;;;;;3.30;2.20;;;24.50;89.50;;;;;;5053589;28;45386;-68
2022/08/26 08:04:19;;;;;;;4.68;2.45;;;24.50;89.50;;;;;;5059739;28;45393;-68
2022/08/26 08:06:46;;;;;;;3.08;2.40;;;24.50;89.70;;;;;;5063099;28;45539;-68
2022/08/26 08:09:15;;;;;;;2.60;2.00;;;24.50;89.80;;;;;;5061576;28;45262;-68
2022/08/26 08:11:43;;;;;;;3.50;2.10;;;24.50;89.70;;;;;;5061942;28;45468;-68
2022/08/26 08:14:10;;;;;;;3.33;2.20;;;24.50;89.80;;;;;;5061104;28;45332;-68
2022/08/26 08:16:37;;;;;;;3.00;2.13;;;24.50;89.70;;;;;;5060399;28;45542;-68
2022/08/26 08:19:04;;;;;;;3.53;1.90;;;24.50;89.60;;;;;;5061366;28;46425;-68
2022/08/26 08:21:30;;;;;;;3.85;2.28;;;24.50;89.60;;;;;;5061899;28;45435;-69
2022/08/26 08:23:58;;;;;;;3.05;1.70;;;24.50;89.70;;;;;;5061623;28;45356;-68
2022/08/26 08:26:26;;;;;;;3.60;2.22;;;24.50;89.60;;;;;;5061893;28;45318;-69
2022/08/26 08:28:55;;;;;;;3.85;1.88;;;24.50;89.60;;;;;;5059481;28;48446;-69
2022/08/26 08:31:25;;;;;;;3.60;1.88;;;24.50;89.50;;;;;;5060846;28;45576;-69
2022/08/26 08:33:52;;;;;;;3.95;2.00;;;24.50;89.60;;;;;;5061448;28;45661;-68
2022/08/26 08:36:19;;;;;;;2.65;1.90;;;24.50;89.60;;;;;;5061468;28;45308;-69
2022/08/26 08:38:46;;;;;;;2.05;1.85;;;24.50;89.40;;;;;;5058236;28;45336;-68
2022/08/26 08:41:26;;;;;;;2.42;1.73;;;24.50;89.30;;;;;;5061970;28;45394;-68
2022/08/26 08:43:55;;;;;;;3.70;2.03;;;24.50;89.20;;;;;;5060628;28;45333;-69
2022/08/26 08:46:23;;;;;;;3.53;1.95;;;24.50;89.30;;;;;;5056421;28;45281;-68
2022/08/26 08:48:57;;;;;;;2.30;1.63;;;24.50;89.20;;;;;;5053949;28;46593;-68
2022/08/26 08:51:32;;;;;;;5.15;1.85;;;24.50;89.20;;;;;;5061797;28;45414;-68
2022/08/26 08:54:00;;;;;;;7.47;2.10;;;24.50;89.30;;;;;;5058617;28;45416;-68
2022/08/26 08:56:31;;;;;;;2.60;1.85;;;24.50;89.20;;;;;;5053899;28;45294;-68
2022/08/26 08:59:10;;;;;;;3.17;2.13;;;24.50;89.20;;;;;;5060235;28;47943;-69
2022/08/26 09:01:58;;;;;;;4.57;1.90;;;24.50;89.20;;;;;;5056712;28;45386;-69
2022/08/26 09:04:47;;;;;;;2.53;1.65;;;24.50;89.10;;;;;;5061903;28;45423;-68
2022/08/26 09:07:20;;;;;;;3.05;1.95;;;24.40;89.10;;;;;;5057355;28;45309;-68
2022/08/26 09:09:51;;;;;;;4.38;1.85;;;24.40;88.90;;;;;;5056754;28;46382;-68
2022/08/26 09:12:23;;;;;;;2.97;1.60;;;24.40;88.90;;;;;;5060213;28;45321;-69
2022/08/26 09:14:53;;;;;;;1.70;1.50;;;24.50;89.00;;;;;;5063316;28;45399;-68
2022/08/26 09:17:33;;;;;;;2.55;1.42;;;24.50;89.20;;;;;;5063229;28;45416;-68
2022/08/26 09:20:10;;;;;;;2.15;1.60;;;24.50;89.00;;;;;;5063469;28;46303;-68
2022/08/26 09:22:38;;;;;;;5.00;1.80;;;24.50;89.00;;;;;;5056814;28;45959;-68
2022/08/26 09:25:08;;;;;;;1.95;1.60;;;24.40;89.10;;;;;;5062891;28;45344;-68
2022/08/26 09:27:44;;;;;;;3.38;1.85;;;24.50;89.20;;;;;;5064289;28;45401;-68
2022/08/26 09:30:15;;;;;;;2.85;1.55;;;24.40;89.00;;;;;;5063728;28;47641;-68
2022/08/26 09:32:43;;;;;;;2.17;1.40;;;24.50;89.10;;;;;;5065740;28;45759;-68
2022/08/26 09:35:26;;;;;;;1.67;1.38;;;24.40;89.00;;;;;;5063019;28;45455;-68
2022/08/26 09:37:53;;;;;;;2.03;1.35;;;24.40;89.10;;;;;;5056357;28;45397;-68
2022/08/26 09:40:25;;;;;;;2.03;1.40;;;24.40;89.10;;;;;;5063613;28;48360;-68
2022/08/26 09:43:18;;;;;;;2.67;1.70;;;24.40;89.20;;;;;;5064532;28;45261;-68
2022/08/26 09:45:48;;;;;;;2.78;1.52;;;24.40;89.10;;;;;;5061136;28;45369;-68
2022/08/26 09:48:27;;;;;;;2.08;1.42;;;24.40;89.00;;;;;;5064583;28;45510;-68
2022/08/26 09:50:56;;;;;;;3.40;1.40;;;24.40;89.10;;;;;;5064194;28;47734;-68
2022/08/26 09:53:26;;;;;;;1.90;1.35;;;24.40;89.10;;;;;;5065056;28;45288;-67
2022/08/26 09:56:13;;;;;;;2.28;1.58;;;24.40;89.10;;;;;;5063997;28;45427;-68
2022/08/26 09:58:42;;;;;;;2.70;1.55;;;24.40;89.10;;;;;;5058030;28;45506;-68
2022/08/26 10:01:25;;;;;;;2.40;1.27;;;24.40;89.00;;;;;;5063271;28;45315;-68
2022/08/26 10:03:52;;;;;;;1.48;1.20;;;24.40;89.00;;;;;;5064548;28;46291;-68
2022/08/26 10:06:25;;;;;;;1.63;1.05;;;24.40;89.00;;;;;;5063734;28;45369;-68
2022/08/26 10:08:57;;;;;;;2.78;1.27;;;24.40;89.00;;;;;;5062981;28;45312;-68
2022/08/26 10:11:30;;;;;;;2.63;1.20;;;24.40;88.80;;;;;;5063830;28;47752;-69
2022/08/26 10:14:03;;;;;;;1.88;1.20;;;24.40;88.70;;;;;;5064814;28;45295;-68
2022/08/26 10:16:37;;;;;;;2.35;1.20;;;24.40;88.70;;;;;;5063171;28;45288;-68
2022/08/26 10:19:08;;;;;;;1.20;1.10;;;24.40;88.70;;;;;;5064024;28;45447;-68
2022/08/26 10:21:42;;;;;;;3.00;1.40;;;24.40;88.70;;;;;;5060340;28;45367;-68
2022/08/26 10:24:10;;;;;;;1.90;1.30;;;24.40;88.90;;;;;;5066141;28;45339;-68
2022/08/26 10:26:44;;;;;;;3.17;1.58;;;24.40;88.90;;;;;;5063447;28;45411;-69
2022/08/26 10:29:15;;;;;;;4.35;1.35;;;24.40;88.80;;;;;;5061442;28;45455;-68
2022/08/26 10:31:50;;;;;;;2.05;1.00;;;24.40;88.80;;;;;;5058587;28;46349;-68
2022/08/26 10:34:18;;;;;;;1.27;1.13;;;24.40;88.60;;;;;;5061583;28;45716;-68
2022/08/26 10:36:55;;;;;;;1.25;1.00;;;24.40;88.60;;;;;;5063033;28;45294;-68
2022/08/26 10:39:27;;;;;;;2.92;1.50;;;24.40;88.60;;;;;;5064120;28;45475;-68
2022/08/26 10:41:59;;;;;;;2.22;1.17;;;24.40;88.60;;;;;;5062596;28;47144;-68
2022/08/26 10:44:28;;;;;;;2.15;1.10;;;24.40;88.70;;;;;;5063313;28;45322;-68
2022/08/26 10:47:01;;;;;;;1.65;1.27;;;24.40;88.70;;;;;;5064087;28;45266;-68
2022/08/26 10:49:28;;;;;;;2.03;1.23;;;24.40;88.90;;;;;;5055808;28;45258;-68
2022/08/26 10:52:02;;;;;;;2.72;1.48;;;24.40;88.80;;;;;;5062323;28;47766;-68
2022/08/26 10:54:38;;;;;;;0.88;0.88;;;24.40;88.80;;;;;;5052010;28;45370;-69
2022/08/26 10:57:13;;;;;;;1.85;1.23;;;24.50;88.90;;;;;;5062112;28;45384;-69
2022/08/26 10:59:53;;;;;;;3.28;0.90;;;24.40;88.90;;;;;;5059163;28;45298;-68
2022/08/26 11:02:27;;;;;;;1.25;1.13;;;24.40;88.90;;;;;;5058980;28;45304;-68
2022/08/26 11:04:56;;;;;;;1.63;1.13;;;24.40;88.90;;;;;;5060491;28;46481;-68
2022/08/26 11:07:39;;;;;;;2.80;1.20;;;24.40;88.90;;;;;;5061739;28;45313;-68
2022/08/26 11:10:11;;;;;;;4.18;1.15;;;24.40;89.00;;;;;;5055051;28;45601;-69
2022/08/26 11:12:55;;;;;;;2.10;1.27;;;24.40;89.10;;;;;;5056970;28;45507;-69
2022/08/26 11:15:58;;;;;;;1.48;0.90;;;24.40;89.20;;;;;;5054915;28;45349;-69
2022/08/26 11:18:47;;;;;;;2.00;1.05;;;24.40;89.00;;;;;;5062878;28;45316;-69
2022/08/26 11:21:48;;;;;;;1.20;0.95;;;24.40;89.10;;;;;;5059520;28;45484;-69
2022/08/26 11:24:59;;;;;;;2.85;1.13;;;24.40;89.20;;;;;;5063577;28;47096;-68
2022/08/26 11:27:53;;;;;;;1.45;1.08;;;24.40;89.20;;;;;;5053413;28;45311;-68
2022/08/26 11:30:50;;;;;;;2.42;0.90;;;24.40;89.20;;;;;;5058135;28;45380;-68
2022/08/26 11:33:55;;;;;;;1.00;0.88;;;24.40;90.10;;;;;;5059879;28;45202;-69
2022/08/26 11:36:53;;;;;;;2.63;1.23;;;24.40;89.40;;;;;;5056729;28;46386;-69
2022/08/26 11:39:24;;;;;;;1.20;0.90;;;24.40;89.20;;;;;;5058413;28;45813;-68
2022/08/26 11:41:54;;;;;;;2.15;0.90;;;24.40;89.20;;;;;;5059761;28;45302;-68
2022/08/26 11:44:24;;;;;;;1.88;1.10;;;24.40;89.20;;;;;;5062322;28;45261;-68
2022/08/26 11:46:56;;;;;;;1.88;0.95;;;24.40;89.20;;;;;;5062574;28;46077;-68
2022/08/26 11:49:24;;;;;;;1.17;0.90;;;24.40;89.20;;;;;;5061915;28;45321;-68
2022/08/26 11:51:52;;;;;;;1.63;0.90;;;24.40;89.10;;;;;;5060567;28;45420;-68
2022/08/26 11:54:22;;;;;;;1.88;1.17;;;24.40;89.20;;;;;;5062122;28;45538;-68
2022/08/26 11:56:51;;;;;;;2.70;1.00;;;24.40;89.20;;;;;;5060023;28;45424;-69
2022/08/26 11:59:24;;;;;;;1.30;1.00;;;24.40;89.30;;;;;;5061856;28;45357;-68
2022/08/26 12:01:53;;;;;;;2.00;0.90;;;24.40;89.20;;;;;;5061990;28;45210;-68
2022/08/26 12:04:28;;;;;;;2.20;1.00;;;24.40;89.10;;;;;;5062678;28;45373;-69
2022/08/26 12:06:59;;;;;;;3.28;1.00;;;24.40;89.20;;;;;;5062159;28;46333;-68
2022/08/26 12:09:28;;;;;;;1.90;0.88;;;24.40;89.20;;;;;;5069091;28;45415;-68
2022/08/26 12:12:11;;;;;;;2.72;1.08;;;24.40;89.10;;;;;;5069654;28;45268;-68
2022/08/26 12:14:38;;;;;;;1.05;0.88;;;24.40;89.10;;;;;;5051638;28;45266;-68
2022/08/26 12:17:13;;;;;;;1.15;0.73;;;24.40;89.10;;;;;;5058509;28;45591;-68
2022/08/26 12:19:40;;;;;;;2.63;1.10;;;24.40;89.00;;;;;;5054155;28;45427;-69
2022/08/26 12:22:17;;;;;;;0.70;0.70;;;24.40;89.00;;;;;;5063238;28;45531;-68
2022/08/26 12:24:49;;;;;;;2.25;0.90;;;24.40;89.10;;;;;;5062259;28;45555;-68
2022/08/26 12:27:20;;;;;;;2.65;0.80;;;24.40;89.10;;;;;;5062110;28;46239;-69
2022/08/26 12:30:01;;;;;;;1.23;0.90;;;24.40;89.10;;;;;;5061782;28;45394;-68
2022/08/26 12:32:29;;;;;;;2.42;1.00;;;24.40;89.30;;;;;;5053611;28;45313;-68
2022/08/26 12:34:56;;;;;;;2.55;0.90;;;24.40;89.20;;;;;;5062240;28;45610;-69
2022/08/26 12:37:26;;;;;;;2.17;0.85;;;24.40;89.00;;;;;;5060991;28;46513;-69
2022/08/26 12:39:53;;;;;;;1.45;0.80;;;24.40;88.90;;;;;;5063262;28;45331;-68
2022/08/26 12:42:39;;;;;;;1.80;0.90;;;24.40;88.90;;;;;;5060713;28;45322;-68
2022/08/26 12:45:08;;;;;;;2.65;0.95;;;24.40;88.90;;;;;;5058203;28;45301;-68
2022/08/26 12:47:38;;;;;;;1.50;0.80;;;24.40;88.90;;;;;;5057194;28;48743;-69
2022/08/26 12:50:07;;;;;;;2.00;0.88;;;24.40;88.80;;;;;;5059168;28;45420;-68
2022/08/26 12:52:41;;;;;;;3.15;1.08;;;24.40;88.70;;;;;;5064820;28;45396;-68
2022/08/26 12:55:19;;;;;;;2.03;1.00;;;24.40;88.70;;;;;;5065924;28;45440;-68
2022/08/26 12:57:46;;;;;;;1.10;0.77;;;24.40;88.70;;;;;;5062952;28;45496;-69
2022/08/26 13:00:33;;;;;;;1.73;0.88;;;24.40;88.60;;;;;;5060228;28;45511;-68
2022/08/26 13:03:01;;;;;;;2.20;1.15;;;24.40;88.50;;;;;;5063859;28;45219;-68
2022/08/26 13:05:31;;;;;;;1.75;0.90;;;24.40;88.60;;;;;;5057494;28;45349;-69
2022/08/26 13:08:15;;;;;;;1.33;0.90;;;24.40;88.60;;;;;;5063313;28;45482;-69